createdAt,value
2023-04-04T00:00:22.318Z,13.00
2023-04-04T00:02:49.607Z,8.15
2023-04-04T00:05:17.010Z,7.53
2023-04-04T00:07:47.304Z,12.15
2023-04-04T00:10:14.547Z,8.45
2023-04-04T00:12:42.243Z,11.45
2023-04-04T00:15:09.619Z,12.20
2023-04-04T00:17:36.418Z,8.40
2023-04-04T00:20:04.365Z,9.88
2023-04-04T00:22:31.572Z,5.97
2023-04-04T00:24:59.151Z,11.70
2023-04-04T00:27:26.293Z,5.82
2023-04-04T00:29:53.428Z,4.05
2023-04-04T00:32:20.659Z,11.10
2023-04-04T00:34:53.005Z,3.63
2023-04-04T00:37:19.794Z,4.28
2023-04-04T00:39:47.682Z,8.93
2023-04-04T00:42:14.453Z,4.65
2023-04-04T00:44:41.430Z,5.18
2023-04-04T00:47:08.231Z,5.03
2023-04-04T00:49:35.014Z,5.55
2023-04-04T00:52:02.244Z,20.63
2023-04-04T00:54:30.556Z,4.15
2023-04-04T00:56:58.229Z,8.05
2023-04-04T00:59:27.823Z,4.53
2023-04-04T01:01:55.124Z,5.82
2023-04-04T01:04:22.462Z,8.65
2023-04-04T01:06:50.930Z,9.30
2023-04-04T01:09:18.504Z,12.20
2023-04-04T01:11:45.611Z,6.72
2023-04-04T01:14:12.515Z,15.15
2023-04-04T01:16:41.133Z,10.55
2023-04-04T01:19:14.167Z,7.90
2023-04-04T01:21:43.134Z,6.40
2023-04-04T01:24:13.290Z,5.43
2023-04-04T01:26:40.042Z,14.55
2023-04-04T01:29:06.851Z,7.43
2023-04-04T01:31:43.459Z,7.60
2023-04-04T01:34:48.346Z,8.32
2023-04-04T01:37:35.087Z,13.63
2023-04-04T01:40:17.148Z,8.82
2023-04-04T01:42:45.696Z,6.25
2023-04-04T01:45:12.601Z,6.45
2023-04-04T01:47:43.340Z,5.75
2023-04-04T01:50:11.773Z,13.50
2023-04-04T01:52:38.852Z,9.55
2023-04-04T01:55:06.030Z,6.30
2023-04-04T01:57:32.848Z,21.80
2023-04-04T01:59:59.608Z,10.00
2023-04-04T02:02:27.129Z,5.97
2023-04-04T02:04:53.977Z,9.40
2023-04-04T02:07:20.753Z,7.50
2023-04-04T02:09:47.601Z,12.65
2023-04-04T02:12:14.498Z,6.18
2023-04-04T02:14:41.313Z,9.25
2023-04-04T02:17:08.075Z,7.82
2023-04-04T02:19:35.588Z,8.88
2023-04-04T02:22:02.675Z,13.05
2023-04-04T02:24:29.476Z,5.82
2023-04-04T02:26:56.268Z,6.22
2023-04-04T02:29:23.535Z,3.92
2023-04-04T02:31:50.462Z,13.23
2023-04-04T02:34:17.373Z,12.07
2023-04-04T02:36:44.166Z,10.73
2023-04-04T02:39:11.074Z,8.00
2023-04-04T02:41:37.836Z,14.02
2023-04-04T02:44:04.549Z,13.45
2023-04-04T02:46:31.286Z,6.63
2023-04-04T02:48:58.095Z,9.60
2023-04-04T02:51:24.850Z,8.80
2023-04-04T02:53:51.618Z,14.00
2023-04-04T02:56:18.398Z,7.18
2023-04-04T02:58:45.651Z,10.93
2023-04-04T03:01:12.632Z,8.07
2023-04-04T03:03:39.642Z,7.40
2023-04-04T03:06:06.579Z,8.13
2023-04-04T03:08:34.982Z,9.73
2023-04-04T03:11:02.667Z,7.22
2023-04-04T03:13:29.478Z,10.18
2023-04-04T03:16:04.581Z,9.13
2023-04-04T03:18:31.581Z,9.35
2023-04-04T03:20:58.396Z,11.23
2023-04-04T03:23:25.227Z,10.93
2023-04-04T03:25:51.979Z,17.27
2023-04-04T03:28:18.694Z,6.40
2023-04-04T03:30:45.627Z,10.88
2023-04-04T03:33:12.414Z,5.93
2023-04-04T03:35:39.861Z,11.73
2023-04-04T03:38:07.450Z,8.57
2023-04-04T03:40:34.283Z,20.20
2023-04-04T03:43:02.394Z,14.15
2023-04-04T03:45:32.639Z,6.70
2023-04-04T03:47:59.476Z,14.52
2023-04-04T03:50:26.498Z,5.10
2023-04-04T03:52:53.321Z,12.25
2023-04-04T03:55:20.088Z,9.15
2023-04-04T03:57:47.111Z,8.70
2023-04-04T04:00:14.323Z,10.23
2023-04-04T04:02:41.278Z,11.60
2023-04-04T04:05:09.248Z,10.60
2023-04-04T04:07:36.082Z,12.80
2023-04-04T04:10:03.306Z,9.45
2023-04-04T04:12:30.069Z,17.98
2023-04-04T04:14:56.854Z,8.80
2023-04-04T04:17:23.672Z,12.05
2023-04-04T04:19:50.470Z,11.00
2023-04-04T04:22:17.221Z,14.52
2023-04-04T04:24:43.977Z,11.20
2023-04-04T04:27:10.964Z,10.30
2023-04-04T04:29:37.758Z,11.75
2023-04-04T04:32:04.570Z,10.80
2023-04-04T04:34:31.637Z,15.25
2023-04-04T04:36:58.427Z,21.48
2023-04-04T04:39:25.181Z,8.90
2023-04-04T04:41:51.945Z,9.10
2023-04-04T04:44:18.742Z,16.05
2023-04-04T04:46:45.486Z,13.77
2023-04-04T04:49:12.508Z,12.13
2023-04-04T04:51:39.354Z,16.98
2023-04-04T04:54:06.171Z,13.23
2023-04-04T04:56:32.958Z,12.02
2023-04-04T04:58:59.764Z,17.90
2023-04-04T05:01:26.801Z,16.67
2023-04-04T05:03:53.709Z,15.18
2023-04-04T05:06:20.703Z,8.20
2023-04-04T05:08:47.623Z,10.68
2023-04-04T05:11:14.391Z,15.43
2023-04-04T05:13:41.227Z,16.45
2023-04-04T05:16:07.994Z,13.40
2023-04-04T05:18:34.784Z,13.82
2023-04-04T05:21:01.506Z,11.35
2023-04-04T05:23:28.322Z,9.50
2023-04-04T05:25:55.118Z,19.95
2023-04-04T05:28:23.749Z,11.18
2023-04-04T05:30:50.778Z,8.40
2023-04-04T05:33:17.584Z,15.32
2023-04-04T05:35:44.390Z,14.50
2023-04-04T05:38:11.317Z,15.02
2023-04-04T05:40:38.340Z,17.45
2023-04-04T05:43:05.347Z,8.75
2023-04-04T05:45:32.100Z,15.38
2023-04-04T05:47:58.907Z,23.48
2023-04-04T05:50:25.996Z,11.02
2023-04-04T05:52:55.956Z,14.63
2023-04-04T05:55:23.129Z,13.50
2023-04-04T05:57:50.826Z,33.97
2023-04-04T06:00:19.498Z,15.63
2023-04-04T06:02:46.409Z,14.07
2023-04-04T06:05:13.159Z,16.90
2023-04-04T06:07:39.929Z,15.07
2023-04-04T06:10:08.022Z,19.70
2023-04-04T06:12:34.811Z,21.02
2023-04-04T06:15:01.612Z,17.45
2023-04-04T06:17:28.425Z,17.50
2023-04-04T06:19:55.597Z,18.40
2023-04-04T06:22:22.355Z,17.45
2023-04-04T06:24:49.145Z,22.38
2023-04-04T06:27:16.012Z,20.05
2023-04-04T06:29:42.825Z,20.30
2023-04-04T06:32:09.672Z,24.25
2023-04-04T06:34:36.412Z,23.15
2023-04-04T06:37:03.531Z,38.75
2023-04-04T06:39:31.523Z,21.05
2023-04-04T06:41:58.318Z,13.57
2023-04-04T06:44:25.116Z,14.23
2023-04-04T06:46:52.050Z,17.08
2023-04-04T06:49:18.826Z,22.77
2023-04-04T06:51:46.491Z,22.05
2023-04-04T06:54:13.273Z,14.60
2023-04-04T06:56:40.054Z,17.40
2023-04-04T06:59:06.866Z,11.50
2023-04-04T07:01:34.383Z,12.30
2023-04-04T07:04:01.165Z,9.88
2023-04-04T07:06:29.719Z,11.38
2023-04-04T07:08:56.556Z,14.77
2023-04-04T07:11:27.038Z,13.65
2023-04-04T07:13:53.923Z,10.88
2023-04-04T07:16:21.108Z,11.60
2023-04-04T07:18:47.909Z,12.75
2023-04-04T07:21:14.727Z,16.67
2023-04-04T07:23:41.498Z,6.20
2023-04-04T07:26:08.296Z,16.40
2023-04-04T07:28:35.129Z,9.70
2023-04-04T07:31:02.119Z,8.98
2023-04-04T07:33:29.096Z,7.72
2023-04-04T07:35:55.912Z,8.70
2023-04-04T07:38:22.840Z,4.65
2023-04-04T07:40:50.570Z,10.02
2023-04-04T07:43:17.360Z,6.03
2023-04-04T07:45:44.407Z,8.05
2023-04-04T07:48:11.377Z,7.75
2023-04-04T07:50:38.568Z,3.33
2023-04-04T07:53:05.536Z,17.50
2023-04-04T07:55:32.268Z,4.97
2023-04-04T07:57:59.064Z,5.25
2023-04-04T08:00:26.517Z,2.40
2023-04-04T08:02:54.850Z,8.30
2023-04-04T08:05:21.832Z,7.55
2023-04-04T08:07:48.631Z,6.60
2023-04-04T08:10:17.789Z,5.63
2023-04-04T08:12:45.095Z,7.60
2023-04-04T08:15:12.330Z,9.48
2023-04-04T08:17:39.261Z,8.60
2023-04-04T08:20:06.899Z,8.32
2023-04-04T08:22:33.784Z,6.07
2023-04-04T08:25:00.781Z,11.52
2023-04-04T08:27:27.983Z,6.35
2023-04-04T08:29:54.821Z,6.35
2023-04-04T08:32:22.265Z,8.80
2023-04-04T08:34:49.787Z,5.88
2023-04-04T08:37:19.972Z,5.95
2023-04-04T08:39:46.769Z,6.03
2023-04-04T08:42:16.840Z,18.48
2023-04-04T08:44:45.811Z,6.38
2023-04-04T08:47:14.553Z,6.07
2023-04-04T08:49:46.646Z,5.03
2023-04-04T08:52:17.828Z,4.35
2023-04-04T08:54:46.279Z,7.82
2023-04-04T08:57:13.567Z,17.20
2023-04-04T08:59:40.529Z,15.95
2023-04-04T09:02:10.271Z,19.38
2023-04-04T09:04:37.882Z,12.80
2023-04-04T09:07:06.668Z,6.30
2023-04-04T09:09:34.262Z,9.00
2023-04-04T09:12:02.365Z,31.35
2023-04-04T09:14:30.886Z,15.55
2023-04-04T09:16:58.210Z,8.55
2023-04-04T09:19:26.375Z,7.50
2023-04-04T09:21:53.384Z,7.07
2023-04-04T09:24:20.278Z,9.02
2023-04-04T09:26:47.966Z,8.15
2023-04-04T09:29:17.484Z,4.38
2023-04-04T09:31:46.724Z,5.75
2023-04-04T09:34:14.900Z,4.57
2023-04-04T09:36:41.842Z,5.30
2023-04-04T09:39:09.168Z,5.88
2023-04-04T09:41:39.644Z,6.47
2023-04-04T09:44:09.870Z,10.43
2023-04-04T09:46:37.702Z,7.18
2023-04-04T09:49:04.781Z,9.30
2023-04-04T09:51:44.454Z,7.95
2023-04-04T09:54:18.752Z,12.15
2023-04-04T09:56:53.666Z,39.20
2023-04-04T09:59:20.678Z,39.58
2023-04-04T10:01:51.115Z,9.38
2023-04-04T10:04:19.089Z,6.93
2023-04-04T10:06:46.295Z,6.55
2023-04-04T10:09:13.474Z,10.25
2023-04-04T10:11:40.260Z,6.20
2023-04-04T10:14:09.320Z,7.03
2023-04-04T10:16:37.583Z,3.97
2023-04-04T10:19:08.380Z,15.90
2023-04-04T10:21:35.728Z,3.42
2023-04-04T10:24:09.267Z,6.65
2023-04-04T10:26:36.902Z,7.25
2023-04-04T10:29:05.883Z,4.10
2023-04-04T10:31:35.657Z,5.72
2023-04-04T10:34:28.984Z,10.02
2023-04-04T10:37:15.107Z,6.45
2023-04-04T10:39:42.664Z,4.95
2023-04-04T10:42:13.812Z,4.55
2023-04-04T10:44:41.765Z,4.03
2023-04-04T10:47:21.868Z,7.55
2023-04-04T10:49:50.668Z,11.38
2023-04-04T10:52:23.528Z,6.43
2023-04-04T10:54:59.621Z,7.45
2023-04-04T11:00:31.628Z,8.68
2023-04-04T11:03:02.711Z,6.88
2023-04-04T11:05:43.542Z,14.48
2023-04-04T11:08:14.009Z,5.00
2023-04-04T11:10:47.313Z,2.05
2023-04-04T11:13:18.308Z,8.88
2023-04-04T11:16:09.936Z,11.98
2023-04-04T11:18:42.516Z,4.40
2023-04-04T11:21:10.072Z,9.90
2023-04-04T11:23:49.167Z,3.78
2023-04-04T11:26:35.075Z,6.30
2023-04-04T11:29:03.620Z,19.17
2023-04-04T11:31:40.669Z,7.88
2023-04-04T11:34:09.418Z,5.30
2023-04-04T11:36:36.389Z,6.07
2023-04-04T11:39:28.267Z,2.63
2023-04-04T11:41:58.827Z,10.52
2023-04-04T11:44:30.590Z,4.47
2023-04-04T11:47:06.404Z,4.93
2023-04-04T11:49:45.523Z,5.78
2023-04-04T11:52:14.513Z,4.22
2023-04-04T11:54:43.624Z,4.95
2023-04-04T11:57:28.656Z,4.65
2023-04-04T11:59:55.734Z,6.60
2023-04-04T12:02:34.208Z,4.72
2023-04-04T12:05:01.497Z,5.63
2023-04-04T12:07:31.780Z,8.73
2023-04-04T12:09:58.711Z,5.95
2023-04-04T12:12:27.750Z,6.55
2023-04-04T12:14:58.070Z,9.23
2023-04-04T12:17:34.527Z,11.10
2023-04-04T12:20:01.352Z,5.80
2023-04-04T12:22:28.766Z,7.28
2023-04-04T12:24:58.152Z,13.77
2023-04-04T12:27:25.547Z,22.75
2023-04-04T12:29:52.837Z,5.78
2023-04-04T12:32:19.872Z,15.80
2023-04-04T12:34:49.948Z,24.17
2023-04-04T12:37:19.431Z,5.47
2023-04-04T12:39:50.857Z,29.52
2023-04-04T12:42:25.152Z,50.88
2023-04-04T12:44:53.806Z,25.80
2023-04-04T12:47:22.432Z,13.07
2023-04-04T12:49:49.955Z,10.57
2023-04-04T12:52:27.248Z,13.73
2023-04-04T12:55:06.596Z,7.20
2023-04-04T12:57:35.936Z,9.23
2023-04-04T13:00:06.606Z,6.28
2023-04-04T13:02:36.047Z,8.88
2023-04-04T13:05:04.032Z,5.53
2023-04-04T13:07:33.709Z,9.30
2023-04-04T13:10:05.549Z,5.70
2023-04-04T13:12:58.926Z,8.82
2023-04-04T13:15:51.563Z,5.88
2023-04-04T13:18:21.098Z,9.90
2023-04-04T13:20:52.707Z,19.90
2023-04-04T13:23:20.971Z,10.95
2023-04-04T13:25:47.886Z,4.57
2023-04-04T13:28:14.908Z,9.82
2023-04-04T13:30:46.798Z,21.42
2023-04-04T13:33:13.812Z,6.20
2023-04-04T13:35:44.161Z,9.82
2023-04-04T13:38:11.791Z,5.25
2023-04-04T13:40:38.672Z,7.03
2023-04-04T13:43:05.591Z,17.10
2023-04-04T13:45:35.851Z,17.50
2023-04-04T13:48:04.127Z,20.42
2023-04-04T13:50:33.041Z,11.23
2023-04-04T13:52:59.832Z,8.52
2023-04-04T13:55:27.568Z,12.32
2023-04-04T13:57:54.424Z,8.85
2023-04-04T14:00:21.525Z,13.45
2023-04-04T14:02:52.882Z,10.18
2023-04-04T14:05:21.262Z,11.10
2023-04-04T14:07:48.248Z,8.82
2023-04-04T14:10:15.110Z,9.73
2023-04-04T14:12:41.985Z,7.13
2023-04-04T14:15:09.528Z,5.95
2023-04-04T14:17:36.619Z,7.85
2023-04-04T14:20:04.272Z,6.22
2023-04-04T14:22:31.457Z,5.07
2023-04-04T14:24:58.173Z,4.07
2023-04-04T14:27:24.994Z,5.90
2023-04-04T14:29:51.785Z,9.50
2023-04-04T14:32:19.217Z,9.25
2023-04-04T14:34:46.005Z,5.05
2023-04-04T14:37:12.889Z,6.22
2023-04-04T14:39:39.689Z,8.23
2023-04-04T14:42:06.611Z,9.38
2023-04-04T14:44:33.833Z,7.50
2023-04-04T14:47:00.796Z,9.52
2023-04-04T14:49:27.889Z,8.52
2023-04-04T14:51:54.628Z,9.73
2023-04-04T14:54:21.604Z,7.00
2023-04-04T14:56:48.815Z,6.50
2023-04-04T14:59:15.782Z,9.40
2023-04-04T15:01:42.678Z,8.75
2023-04-04T15:04:10.734Z,9.25
2023-04-04T15:06:38.166Z,5.00
2023-04-04T15:09:06.153Z,8.45
2023-04-04T15:11:32.973Z,5.85
2023-04-04T15:13:59.745Z,5.60
2023-04-04T15:16:29.718Z,11.25
2023-04-04T15:18:56.484Z,8.93
2023-04-04T15:21:23.246Z,5.18
2023-04-04T15:23:50.032Z,8.98
2023-04-04T15:26:16.816Z,6.70
2023-04-04T15:28:43.566Z,10.90
2023-04-04T15:31:13.048Z,3.85
2023-04-04T15:33:40.530Z,4.53
2023-04-04T15:36:07.311Z,11.95
2023-04-04T15:38:34.064Z,4.90
2023-04-04T15:41:00.853Z,4.57
2023-04-04T15:43:27.863Z,6.45
2023-04-04T15:45:54.675Z,9.65
2023-04-04T15:48:21.497Z,6.55
2023-04-04T15:50:48.726Z,5.13
2023-04-04T15:53:15.657Z,6.95
2023-04-04T15:55:43.714Z,6.55
2023-04-04T15:58:10.495Z,6.82
2023-04-04T16:00:37.429Z,6.72
2023-04-04T16:03:04.401Z,7.85
2023-04-04T16:05:31.272Z,4.90
2023-04-04T16:07:58.034Z,11.20
2023-04-04T16:10:24.744Z,13.90
2023-04-04T16:12:51.626Z,10.45
2023-04-04T16:15:19.150Z,13.73
2023-04-04T16:17:47.056Z,15.20
2023-04-04T16:20:14.181Z,14.82
2023-04-04T16:22:40.988Z,8.85
2023-04-04T16:25:08.962Z,9.27
2023-04-04T16:27:36.807Z,14.95
2023-04-04T16:30:03.961Z,8.93
2023-04-04T16:32:31.863Z,7.22
2023-04-04T16:34:58.743Z,6.63
2023-04-04T16:37:25.612Z,7.57
2023-04-04T16:39:52.495Z,5.47
2023-04-04T16:42:19.560Z,4.35
2023-04-04T16:44:47.423Z,5.78
2023-04-04T16:47:14.473Z,10.98
2023-04-04T16:49:41.958Z,9.23
2023-04-04T16:52:10.647Z,8.02
2023-04-04T16:54:38.085Z,12.70
2023-04-04T16:57:04.831Z,19.40
2023-04-04T16:59:31.632Z,5.93
2023-04-04T17:01:58.450Z,6.10
2023-04-04T17:04:25.608Z,5.88
2023-04-04T17:06:52.442Z,7.05
2023-04-04T17:09:19.136Z,9.32
2023-04-04T17:11:46.948Z,10.93
2023-04-04T17:14:16.303Z,11.05
2023-04-04T17:16:43.602Z,10.13
2023-04-04T17:19:10.669Z,8.15
2023-04-04T17:21:37.466Z,12.63
2023-04-04T17:24:04.405Z,10.63
2023-04-04T17:26:31.204Z,10.68
2023-04-04T17:28:57.961Z,13.75
2023-04-04T17:31:24.826Z,16.75
2023-04-04T17:33:51.648Z,26.77
2023-04-04T17:36:19.046Z,22.20
2023-04-04T17:38:46.690Z,19.13
2023-04-04T17:41:13.673Z,7.10
2023-04-04T17:43:41.125Z,13.27
2023-04-04T17:46:09.324Z,9.75
2023-04-04T17:48:39.084Z,9.43
2023-04-04T17:51:07.827Z,12.15
2023-04-04T17:53:35.273Z,13.30
2023-04-04T17:56:01.993Z,12.60
2023-04-04T17:58:28.731Z,13.43
2023-04-04T18:00:57.425Z,17.33
2023-04-04T18:03:24.367Z,9.93
2023-04-04T18:05:52.833Z,8.13
2023-04-04T18:08:20.062Z,12.52
2023-04-04T18:10:47.050Z,13.68
2023-04-04T18:13:13.844Z,13.82
2023-04-04T18:15:41.245Z,13.20
2023-04-04T18:18:08.377Z,12.32
2023-04-04T18:20:36.541Z,15.95
2023-04-04T18:23:04.463Z,12.52
2023-04-04T18:25:32.372Z,12.45
2023-04-04T18:27:59.663Z,11.18
2023-04-04T18:30:26.706Z,8.50
2023-04-04T18:32:53.528Z,10.23
2023-04-04T18:35:20.339Z,13.45
2023-04-04T18:37:47.106Z,10.18
2023-04-04T18:40:14.196Z,13.55
2023-04-04T18:42:41.128Z,10.48
2023-04-04T18:45:08.271Z,7.15
2023-04-04T18:47:35.428Z,12.23
2023-04-04T18:50:03.022Z,6.80
2023-04-04T18:52:29.856Z,10.10
2023-04-04T18:54:56.609Z,14.10
2023-04-04T18:57:23.438Z,10.13
2023-04-04T18:59:50.315Z,8.80
2023-04-04T19:02:18.060Z,13.90
2023-04-04T19:04:47.318Z,11.10
2023-04-04T19:07:21.947Z,9.38
2023-04-04T19:09:50.193Z,7.95
2023-04-04T19:12:16.963Z,11.77
2023-04-04T19:14:43.666Z,10.35
2023-04-04T19:17:12.569Z,10.98
2023-04-04T19:19:39.323Z,7.30
2023-04-04T19:22:06.422Z,13.75
2023-04-04T19:24:33.181Z,12.52
2023-04-04T19:26:59.916Z,13.18
2023-04-04T19:29:26.661Z,12.23
2023-04-04T19:31:54.829Z,9.95
2023-04-04T19:34:22.011Z,18.80
2023-04-04T19:36:48.814Z,22.02
2023-04-04T19:39:19.994Z,16.25
2023-04-04T19:41:46.766Z,21.20
2023-04-04T19:44:20.940Z,15.68
2023-04-04T19:46:48.306Z,14.23
2023-04-04T19:49:16.640Z,9.40
2023-04-04T19:51:48.945Z,12.45
2023-04-04T19:54:16.121Z,12.95
2023-04-04T19:56:46.334Z,13.20
2023-04-04T19:59:39.266Z,14.82
2023-04-04T20:02:07.845Z,13.82
2023-04-04T20:04:34.609Z,15.65
2023-04-04T20:07:01.394Z,10.95
2023-04-04T20:09:37.059Z,14.20
2023-04-04T20:12:06.300Z,14.13
2023-04-04T20:14:33.042Z,10.05
2023-04-04T20:16:59.805Z,16.23
2023-04-04T20:19:28.330Z,14.55
2023-04-04T20:22:07.760Z,15.82
2023-04-04T20:24:34.685Z,14.40
2023-04-04T20:27:03.007Z,19.23
2023-04-04T20:29:34.640Z,17.70
2023-04-04T20:32:02.715Z,13.05
2023-04-04T20:34:41.139Z,17.20
2023-04-04T20:37:12.151Z,15.98
2023-04-04T20:39:47.900Z,19.30
2023-04-04T20:42:29.889Z,16.48
2023-04-04T20:45:06.341Z,16.38
2023-04-04T20:47:46.542Z,14.77
2023-04-04T20:50:16.719Z,15.73
2023-04-04T20:52:47.550Z,13.23
2023-04-04T20:55:14.295Z,10.10
2023-04-04T20:57:41.209Z,16.42
2023-04-04T21:00:23.516Z,16.88
2023-04-04T21:02:50.379Z,12.40
2023-04-04T21:05:35.498Z,18.77
2023-04-04T21:08:08.420Z,13.93
2023-04-04T21:10:48.121Z,17.77
2023-04-04T21:13:15.324Z,12.93
2023-04-04T21:15:42.185Z,15.85
2023-04-04T21:18:11.733Z,14.60
2023-04-04T21:20:47.590Z,26.25
2023-04-04T21:23:26.302Z,18.45
2023-04-04T21:26:04.014Z,21.85
2023-04-04T21:28:34.795Z,18.88
2023-04-04T21:31:08.931Z,17.38
2023-04-04T21:33:38.085Z,27.58
2023-04-04T21:36:07.789Z,22.17
2023-04-04T21:38:35.259Z,28.85
2023-04-04T21:41:17.782Z,31.00
2023-04-04T21:43:44.533Z,30.45
2023-04-04T21:46:11.462Z,37.17
2023-04-04T21:48:38.425Z,28.30
2023-04-04T21:51:05.667Z,30.65
2023-04-04T21:53:32.409Z,22.58
2023-04-04T21:55:59.210Z,25.95
2023-04-04T21:58:26.192Z,27.83
2023-04-04T22:00:52.973Z,33.58
2023-04-04T22:03:19.672Z,50.63
2023-04-04T22:05:47.527Z,46.75
2023-04-04T22:08:14.461Z,46.92
2023-04-04T22:10:49.946Z,35.40
2023-04-04T22:13:18.642Z,30.40
2023-04-04T22:15:47.047Z,25.52
2023-04-04T22:18:17.377Z,29.42
2023-04-04T22:20:46.192Z,23.00
2023-04-04T22:23:15.362Z,19.27
2023-04-04T22:25:42.466Z,20.92
2023-04-04T22:28:09.766Z,31.13
2023-04-04T22:30:39.253Z,25.30
2023-04-04T22:33:06.325Z,25.50
2023-04-04T22:35:33.532Z,25.45
2023-04-04T22:38:01.570Z,25.60
2023-04-04T22:40:28.843Z,29.05
2023-04-04T22:42:56.043Z,32.10
2023-04-04T22:45:23.536Z,25.50
2023-04-04T22:47:50.509Z,27.98
2023-04-04T22:50:24.887Z,25.85
2023-04-04T22:52:54.574Z,27.17
2023-04-04T22:55:24.736Z,24.08
2023-04-04T22:57:51.576Z,24.33
2023-04-04T23:00:18.895Z,25.58
2023-04-04T23:02:47.265Z,14.85
2023-04-04T23:05:16.057Z,23.42
2023-04-04T23:07:44.830Z,14.43
2023-04-04T23:10:14.093Z,16.77
2023-04-04T23:12:41.104Z,16.20
2023-04-04T23:15:13.304Z,11.77
2023-04-04T23:17:40.591Z,18.70
2023-04-04T23:20:10.503Z,20.80
2023-04-04T23:22:38.056Z,18.92
2023-04-04T23:25:06.497Z,20.38
2023-04-04T23:27:34.165Z,18.90
2023-04-04T23:30:04.369Z,18.60
2023-04-04T23:32:32.150Z,18.10
2023-04-04T23:34:59.211Z,16.70
2023-04-04T23:37:26.083Z,17.25
2023-04-04T23:39:52.883Z,15.05
2023-04-04T23:42:19.599Z,19.13
2023-04-04T23:44:46.371Z,18.77
2023-04-04T23:47:13.672Z,20.40
2023-04-04T23:49:40.624Z,20.02
2023-04-04T23:52:07.418Z,13.70
2023-04-04T23:54:34.232Z,24.80
2023-04-04T23:57:01.259Z,17.58
2023-04-04T23:59:28.086Z,26.23
